Time;durP1;ratioP1;P1;durP2;ratioP2;P2;SDS_P1;SDS_P2;PMS_P1;PMS_P2;Temp;Humidity;BMP_temperature;BMP_pressure;BME280_temperature;BME280_humidity;BME280_pressure;Samples;Min_cycle;Max_cycle;Signal;HPM_P1;HPM_P2
2021/06/26 00:01:52;;;;;;;10.45;8.30;;;;;;;20.03;71.88;99891.31;5098019;28;20056;-50
2021/06/26 00:04:18;;;;;;;9.75;8.75;;;;;;;20.02;71.74;99889.63;5097634;28;20196;-50
2021/06/26 00:06:43;;;;;;;11.27;9.18;;;;;;;20.02;71.80;99889.63;5097071;28;20047;-50
2021/06/26 00:09:09;;;;;;;9.27;7.47;;;;;;;19.99;71.65;99895.97;5097280;28;20052;-50
2021/06/26 00:11:35;;;;;;;9.65;8.43;;;;;;;19.97;71.62;99891.69;5096867;28;20040;-50
2021/06/26 00:14:01;;;;;;;9.38;8.25;;;;;;;19.92;71.66;99896.44;5096993;28;20172;-50
2021/06/26 00:16:27;;;;;;;11.18;8.07;;;;;;;19.90;71.65;99898.34;5097459;28;20046;-50
2021/06/26 00:18:53;;;;;;;8.55;7.75;;;;;;;19.89;71.67;99901.94;5095958;28;20044;-50
2021/06/26 00:21:19;;;;;;;9.05;7.93;;;;;;;19.90;71.52;99901.00;5096818;28;20063;-50
2021/06/26 00:23:44;;;;;;;8.82;7.95;;;;;;;19.90;71.59;99909.00;5097852;28;20340;-50
2021/06/26 00:26:10;;;;;;;10.10;8.00;;;;;;;19.89;71.84;99899.28;5096842;28;20059;-50
2021/06/26 00:28:36;;;;;;;9.48;8.45;;;;;;;19.85;71.72;99901.28;5096963;28;20052;-49
2021/06/26 00:31:02;;;;;;;8.82;7.93;;;;;;;19.84;71.68;99905.75;5096876;28;20058;-50
2021/06/26 00:33:27;;;;;;;9.93;7.63;;;;;;;19.83;71.73;99900.53;5096887;28;20505;-50
2021/06/26 00:35:53;;;;;;;7.95;7.18;;;;;;;19.81;71.57;99910.41;5097161;28;20040;-50
2021/06/26 00:38:19;;;;;;;7.72;6.95;;;;;;;19.79;71.71;99909.63;5096565;28;20040;-49
2021/06/26 00:40:45;;;;;;;7.80;7.00;;;;;;;19.77;71.06;99908.88;5096766;28;20077;-50
2021/06/26 00:43:10;;;;;;;9.38;6.63;;;;;;;19.74;71.36;99904.59;5097521;28;20056;-50
2021/06/26 00:45:36;;;;;;;9.30;6.45;;;;;;;19.72;71.27;99906.50;5095853;28;20352;-50
2021/06/26 00:48:02;;;;;;;8.95;7.20;;;;;;;19.73;71.06;99902.06;5096414;28;20066;-50
2021/06/26 00:50:29;;;;;;;8.02;5.60;;;;;;;19.73;70.99;99899.41;5096795;28;20051;-50
2021/06/26 00:52:55;;;;;;;7.70;6.43;;;;;;;19.71;70.80;99890.66;5096544;28;20048;-50
2021/06/26 00:55:21;;;;;;;8.93;7.05;;;;;;;19.68;70.86;99894.34;5095395;28;20048;-49
2021/06/26 00:57:56;;;;;;;7.55;6.20;;;;;;;19.70;70.15;99891.63;5096729;28;20046;-50
2021/06/26 01:00:22;;;;;;;6.88;6.18;;;;;;;19.62;70.59;99898.19;5096318;28;20360;-50
2021/06/26 01:02:48;;;;;;;8.23;6.45;;;;;;;19.61;70.77;99891.19;5096471;28;20117;-50
2021/06/26 01:05:14;;;;;;;7.15;5.78;;;;;;;19.58;70.38;99894.03;5095559;28;20048;-50
2021/06/26 01:07:40;;;;;;;6.85;6.15;;;;;;;19.56;70.39;99885.31;5095871;28;20048;-50
2021/06/26 01:10:06;;;;;;;11.00;6.32;;;;;;;19.55;70.17;99888.91;5096328;28;20074;-50
2021/06/26 01:12:32;;;;;;;6.25;5.65;;;;;;;19.53;70.19;99889.94;5096395;28;20059;-50
2021/06/26 01:14:58;;;;;;;8.98;6.03;;;;;;;19.47;70.12;99887.69;5096382;28;20353;-50
2021/06/26 01:17:24;;;;;;;6.57;5.88;;;;;;;19.42;70.33;99887.94;5096339;28;20147;-50
2021/06/26 01:19:49;;;;;;;6.55;5.85;;;;;;;19.42;70.30;99889.75;5096054;28;20425;-50
2021/06/26 01:22:18;;;;;;;7.22;6.57;;;;;;;19.41;70.44;99896.88;5096253;28;20048;-50
2021/06/26 01:24:44;;;;;;;7.75;6.28;;;;;;;19.41;70.36;99886.25;5095388;28;20048;-50
2021/06/26 01:27:09;;;;;;;6.55;5.95;;;;;;;19.36;70.61;99889.16;5095606;28;20163;-50
2021/06/26 01:29:35;;;;;;;8.32;6.22;;;;;;;19.36;70.55;99891.81;5095036;28;20059;-50
2021/06/26 01:32:05;;;;;;;7.32;6.40;;;;;;;19.36;70.42;99885.66;5097097;28;20044;-50
2021/06/26 01:34:30;;;;;;;7.38;6.20;;;;;;;19.34;70.51;99887.56;5100312;28;20359;-50
2021/06/26 01:36:56;;;;;;;7.07;6.40;;;;;;;19.31;70.71;99883.28;5100044;28;20063;-50
2021/06/26 01:39:22;;;;;;;6.63;6.03;;;;;;;19.31;70.66;99879.78;5100196;28;20109;-49
2021/06/26 01:41:48;;;;;;;6.60;6.00;;;;;;;19.31;70.76;99880.63;5099892;28;20043;-50
2021/06/26 01:44:14;;;;;;;8.27;6.95;;;;;;;19.27;70.70;99872.91;5100110;28;20040;-50
2021/06/26 01:46:40;;;;;;;8.38;7.35;;;;;;;19.25;70.78;99874.84;5100067;28;20048;-50
2021/06/26 01:49:10;;;;;;;7.38;6.53;;;;;;;19.25;70.75;99878.34;5099432;28;20382;-50
2021/06/26 01:51:36;;;;;;;6.97;6.28;;;;;;;19.21;70.88;99891.91;5100159;28;20044;-50
2021/06/26 01:54:04;;;;;;;7.82;6.15;;;;;;;19.20;71.12;99882.19;5099938;28;20066;-50
2021/06/26 01:56:29;;;;;;;8.40;6.55;;;;;;;19.18;71.15;99878.81;5099933;28;20333;-50
2021/06/26 01:58:55;;;;;;;8.30;6.10;;;;;;;19.19;71.14;99881.34;5099564;28;20052;-50
2021/06/26 02:01:21;;;;;;;7.00;6.40;;;;;;;19.17;71.15;99880.56;5099458;28;20403;-50
2021/06/26 02:03:47;;;;;;;7.63;6.15;;;;;;;19.17;71.45;99882.38;5100026;28;20047;-50
2021/06/26 02:06:13;;;;;;;6.97;6.38;;;;;;;19.17;71.21;99882.38;5099704;28;20081;-50
2021/06/26 02:08:39;;;;;;;7.75;5.88;;;;;;;19.18;71.10;99892.94;5098522;28;20083;-50
2021/06/26 02:11:05;;;;;;;6.95;6.32;;;;;;;19.16;71.22;99889.50;5100288;28;20055;-50
2021/06/26 02:13:30;;;;;;;7.60;6.80;;;;;;;19.18;71.55;99889.41;5098748;28;20058;-50
2021/06/26 02:15:57;;;;;;;8.15;6.75;;;;;;;19.19;71.34;99893.78;5099536;28;20047;-50
2021/06/26 02:18:22;;;;;;;7.30;6.60;;;;;;;19.16;71.49;99881.53;5099501;28;20059;-50
2021/06/26 02:20:48;;;;;;;9.38;6.70;;;;;;;19.16;71.29;99886.84;5099704;28;20472;-50
2021/06/26 02:23:14;;;;;;;7.05;6.22;;;;;;;19.13;71.65;99890.53;5099108;28;20052;-50
2021/06/26 02:25:40;;;;;;;7.35;6.65;;;;;;;19.13;71.61;99892.34;5099058;28;20055;-50
2021/06/26 02:28:05;;;;;;;8.07;7.30;;;;;;;19.11;71.46;99887.13;5099130;28;20048;-50
2021/06/26 02:30:31;;;;;;;13.23;7.38;;;;;;;19.09;71.64;99896.97;5098930;28;20554;-50
2021/06/26 02:32:57;;;;;;;8.10;7.30;;;;;;;19.09;71.59;99901.44;5099451;28;20052;-50
2021/06/26 02:35:23;;;;;;;8.60;7.35;;;;;;;19.07;71.90;99906.81;5098810;28;20075;-50
2021/06/26 02:37:49;;;;;;;7.78;6.97;;;;;;;19.04;71.97;99901.69;5098884;28;20044;-50
2021/06/26 02:40:15;;;;;;;7.60;6.80;;;;;;;19.06;72.14;99910.41;5099166;28;20117;-49
2021/06/26 02:42:41;;;;;;;9.45;7.88;;;;;;;19.05;72.07;99906.06;5098570;28;20059;-50
2021/06/26 02:45:07;;;;;;;8.07;7.18;;;;;;;19.04;72.14;99899.03;5098980;28;20048;-50
2021/06/26 02:47:33;;;;;;;8.32;7.40;;;;;;;19.04;72.09;99899.03;5098958;28;20379;-50
2021/06/26 02:49:59;;;;;;;9.45;8.25;;;;;;;19.03;72.05;99907.94;5099158;28;20043;-50
2021/06/26 02:52:25;;;;;;;8.40;7.50;;;;;;;19.03;72.21;99909.75;5098525;28;20036;-49
2021/06/26 02:54:50;;;;;;;8.35;6.90;;;;;;;19.03;72.37;99915.06;5098817;28;20048;-50
2021/06/26 02:57:16;;;;;;;9.07;8.23;;;;;;;19.02;72.46;99919.50;5099216;28;20052;-50
2021/06/26 02:59:44;;;;;;;8.55;7.38;;;;;;;19.03;72.31;99923.00;5098725;28;20043;-50
2021/06/26 03:02:10;;;;;;;7.70;6.90;;;;;;;19.02;72.45;99911.56;5098345;28;20502;-50
2021/06/26 03:04:36;;;;;;;10.35;7.65;;;;;;;19.02;72.39;99918.66;5098627;28;20394;-50
2021/06/26 03:07:02;;;;;;;8.27;7.55;;;;;;;19.02;72.53;99921.31;5098305;28;20044;-50
2021/06/26 03:09:28;;;;;;;9.32;7.93;;;;;;;18.98;72.70;99918.00;5098528;28;20044;-50
2021/06/26 03:11:54;;;;;;;8.93;8.02;;;;;;;18.98;72.80;99927.72;5098349;28;20040;-50
2021/06/26 03:14:20;;;;;;;8.65;7.50;;;;;;;18.97;72.86;99926.88;5098429;28;20048;-50
2021/06/26 03:16:46;;;;;;;9.07;8.15;;;;;;;18.96;72.95;99929.63;5098377;28;20059;-50
2021/06/26 03:19:12;;;;;;;8.75;7.85;;;;;;;18.94;73.19;99937.66;5098332;28;20425;-50
2021/06/26 03:21:38;;;;;;;9.60;8.02;;;;;;;18.95;73.05;99934.09;5098284;28;20040;-50
2021/06/26 03:24:04;;;;;;;8.13;7.32;;;;;;;18.94;73.17;99932.34;5098513;28;20044;-50
2021/06/26 03:26:33;;;;;;;10.85;8.90;;;;;;;18.91;73.37;99930.75;5097930;28;20059;-50
2021/06/26 03:28:59;;;;;;;9.43;8.57;;;;;;;18.93;73.34;99946.56;5097763;28;20060;-50
2021/06/26 03:31:25;;;;;;;11.88;9.38;;;;;;;18.94;73.46;99936.81;5097975;28;20131;-50
2021/06/26 03:33:51;;;;;;;8.80;7.90;;;;;;;18.91;73.50;99943.16;5097149;28;20344;-49
2021/06/26 03:36:17;;;;;;;10.05;8.82;;;;;;;18.92;73.41;99943.06;5097645;28;20471;-50
2021/06/26 03:38:43;;;;;;;10.95;8.85;;;;;;;18.91;73.55;99936.06;5097890;28;20074;-50
2021/06/26 03:41:09;;;;;;;9.80;8.80;;;;;;;18.94;73.58;99942.97;5098031;28;20052;-50
2021/06/26 03:43:35;;;;;;;10.73;8.65;;;;;;;18.98;73.50;99938.34;5097837;28;20040;-50
2021/06/26 03:46:01;;;;;;;9.60;8.57;;;;;;;19.00;73.62;99936.47;5096832;28;20056;-50
2021/06/26 03:48:27;;;;;;;9.55;8.55;;;;;;;19.01;73.29;99928.44;5113795;28;20055;-50
2021/06/26 03:50:53;;;;;;;11.30;9.70;;;;;;;19.04;73.48;99930.88;5097603;28;20040;-50
2021/06/26 03:53:19;;;;;;;9.25;8.32;;;;;;;19.07;73.41;99929.84;5097642;28;20068;-50
2021/06/26 03:55:51;;;;;;;10.90;9.80;;;;;;;19.11;73.29;99936.72;5096440;28;20056;-50
2021/06/26 03:58:20;;;;;;;9.27;8.38;;;;;;;19.14;73.20;99936.50;5097374;28;20051;-50
2021/06/26 04:00:46;;;;;;;9.32;8.32;;;;;;;19.17;73.29;99940.78;5097494;28;20068;-50
2021/06/26 04:03:12;;;;;;;9.15;8.27;;;;;;;19.20;73.10;99938.81;5096567;28;20054;-50
2021/06/26 04:05:38;;;;;;;10.15;9.15;;;;;;;19.26;73.11;99937.59;5097442;28;20040;-50
2021/06/26 04:08:05;;;;;;;10.15;8.60;;;;;;;19.29;73.01;99946.22;5096530;28;20048;-50
2021/06/26 04:10:32;;;;;;;12.45;8.55;;;;;;;19.33;73.02;99946.91;5097253;28;20040;-50
2021/06/26 04:12:58;;;;;;;9.52;7.85;;;;;;;19.42;72.85;99943.72;5096975;28;20048;-50
2021/06/26 04:15:23;;;;;;;8.32;7.25;;;;;;;19.50;72.66;99945.91;5096966;28;20051;-50
2021/06/26 04:17:49;;;;;;;11.43;7.65;;;;;;;19.52;72.66;99942.22;5097382;28;20052;-50
2021/06/26 04:20:15;;;;;;;10.57;7.90;;;;;;;19.59;72.54;99946.19;5097380;28;20051;-50
2021/06/26 04:22:44;;;;;;;9.80;7.85;;;;;;;19.64;72.47;99939.81;5097093;28;20448;-49
2021/06/26 04:25:12;;;;;;;9.73;8.10;;;;;;;19.70;71.87;99940.28;5091957;28;20047;-50
2021/06/26 04:27:38;;;;;;;8.48;7.68;;;;;;;19.75;71.66;99948.81;5112796;28;20121;-50
2021/06/26 04:30:04;;;;;;;8.93;7.75;;;;;;;19.80;71.45;99953.88;5096672;28;20402;-50
2021/06/26 04:32:30;;;;;;;10.05;7.88;;;;;;;19.84;71.56;99950.06;5096850;28;20040;-50
2021/06/26 04:34:56;;;;;;;7.70;6.90;;;;;;;19.89;71.21;99955.09;5097717;28;20044;-50
2021/06/26 04:37:22;;;;;;;9.13;7.50;;;;;;;19.92;70.77;99950.47;5097167;28;20043;-50
2021/06/26 04:39:48;;;;;;;9.77;7.68;;;;;;;19.99;70.87;99950.94;5097426;28;20059;-50
2021/06/26 04:42:13;;;;;;;7.55;6.70;;;;;;;20.05;70.81;99946.09;5096478;28;20387;-50
2021/06/26 04:44:39;;;;;;;8.73;7.90;;;;;;;20.13;70.66;99952.75;5096411;28;20055;-50
2021/06/26 04:47:05;;;;;;;9.68;8.43;;;;;;;20.18;70.30;99950.63;5095832;28;20052;-50
2021/06/26 04:49:31;;;;;;;7.80;7.07;;;;;;;20.25;70.59;99951.97;5095789;28;20329;-50
2021/06/26 04:51:57;;;;;;;9.20;8.27;;;;;;;20.34;70.41;99951.38;5096547;28;20055;-50
2021/06/26 04:54:23;;;;;;;8.10;7.13;;;;;;;20.40;70.16;99948.34;5095733;28;20052;-50
2021/06/26 04:56:49;;;;;;;8.98;8.07;;;;;;;20.51;69.98;99950.38;5096587;28;20056;-50
2021/06/26 04:59:14;;;;;;;10.77;7.72;;;;;;;20.58;69.44;99949.00;5096320;28;20344;-50
2021/06/26 05:01:40;;;;;;;9.60;8.60;;;;;;;20.65;69.15;99947.66;5096206;28;20048;-49
2021/06/26 05:04:06;;;;;;;7.95;7.15;;;;;;;20.76;68.91;99950.47;5096252;28;20040;-49
2021/06/26 05:06:32;;;;;;;6.95;6.30;;;;;;;20.81;68.87;99941.34;5096321;28;20056;-49
2021/06/26 05:08:58;;;;;;;5.95;5.45;;;;;;;20.97;68.80;99950.88;5096426;28;20485;-50
2021/06/26 05:11:24;;;;;;;6.90;6.20;;;;;;;21.10;68.67;99947.41;5096308;28;20051;-49
2021/06/26 05:13:49;;;;;;;9.73;7.18;;;;;;;21.22;68.50;99939.47;5096194;28;20415;-49
2021/06/26 05:16:15;;;;;;;8.00;6.88;;;;;;;21.27;67.27;99940.97;5096606;28;20052;-49
2021/06/26 05:18:41;;;;;;;7.32;6.63;;;;;;;21.32;66.79;99944.16;5095434;28;20052;-50
2021/06/26 05:21:07;;;;;;;6.47;5.95;;;;;;;21.37;67.14;99944.72;5096011;28;20452;-50
2021/06/26 05:23:33;;;;;;;6.15;5.55;;;;;;;21.47;67.12;99952.00;5095994;28;20043;-49
2021/06/26 05:25:58;;;;;;;7.13;6.32;;;;;;;21.55;66.26;99939.97;5096022;28;20093;-49
2021/06/26 05:28:24;;;;;;;6.88;6.10;;;;;;;21.63;66.30;99940.28;5095814;28;20063;-49
2021/06/26 05:30:50;;;;;;;6.82;6.22;;;;;;;21.73;65.99;99940.50;5095904;28;20040;-49
2021/06/26 05:33:16;;;;;;;6.15;5.30;;;;;;;21.85;66.26;99935.19;5112194;28;20052;-50
2021/06/26 05:35:43;;;;;;;5.85;5.30;;;;;;;21.98;65.50;99943.19;5096147;28;20432;-49
2021/06/26 05:38:09;;;;;;;6.72;5.88;;;;;;;22.09;65.18;99942.41;5095011;28;20093;-49
2021/06/26 05:40:35;;;;;;;9.07;7.22;;;;;;;22.20;64.44;99947.88;5096116;28;20113;-50
2021/06/26 05:43:01;;;;;;;6.45;5.85;;;;;;;22.28;64.58;99945.50;5096118;28;20113;-50
2021/06/26 05:45:26;;;;;;;5.35;4.57;;;;;;;22.39;64.12;99948.28;5095750;28;20398;-50
2021/06/26 05:47:52;;;;;;;5.80;5.05;;;;;;;22.51;63.61;99951.84;5096050;28;20044;-49
2021/06/26 05:50:18;;;;;;;7.10;5.70;;;;;;;22.66;63.82;99951.72;5095637;28;20058;-50
2021/06/26 05:52:51;;;;;;;5.18;4.68;;;;;;;22.84;63.05;99948.53;5096007;28;20081;-50
2021/06/26 05:55:17;;;;;;;4.93;4.38;;;;;;;22.96;62.45;99948.63;5096015;28;20036;-50
2021/06/26 05:57:43;;;;;;;5.32;4.35;;;;;;;23.10;61.63;99943.09;5095067;28;20118;-50
2021/06/26 06:00:09;;;;;;;4.55;4.15;;;;;;;23.25;61.94;99944.63;5096432;28;20048;-50
2021/06/26 06:02:39;;;;;;;4.40;4.00;;;;;;;23.40;61.63;99934.63;5095659;28;20540;-50
2021/06/26 06:05:07;;;;;;;5.72;4.00;;;;;;;23.53;61.04;99935.38;5096426;28;20044;-50
2021/06/26 06:07:35;;;;;;;5.55;4.13;;;;;;;23.67;60.20;99930.78;5095569;28;20060;-50
2021/06/26 06:10:02;;;;;;;4.78;3.42;;;;;;;23.90;60.15;99942.38;5095854;28;20048;-50
2021/06/26 06:12:27;;;;;;;5.30;3.28;;;;;;;24.30;60.16;99940.06;5095751;28;20127;-50
2021/06/26 06:14:53;;;;;;;3.45;3.15;;;;;;;24.89;58.57;99929.03;5095812;28;20051;-50
2021/06/26 06:17:19;;;;;;;4.80;3.10;;;;;;;25.30;55.17;99940.81;5095841;28;20078;-50
2021/06/26 06:19:45;;;;;;;25.25;12.77;;;;;;;25.79;53.27;99935.78;5099089;28;20046;-50
2021/06/26 06:22:10;;;;;;;5.72;3.95;;;;;;;26.01;52.60;99930.28;5099145;28;20044;-50
2021/06/26 06:24:36;;;;;;;5.32;2.65;;;;;;;26.44;52.28;99939.91;5098960;28;20051;-49
2021/06/26 06:27:03;;;;;;;4.43;3.53;;;;;;;26.82;49.55;99930.25;5098466;28;20063;-50
2021/06/26 06:29:28;;;;;;;2.45;2.25;;;;;;;27.07;48.63;99928.00;5099268;28;20271;-49
2021/06/26 06:31:55;;;;;;;3.33;2.50;;;;;;;27.18;48.27;99925.22;5099174;28;20051;-50
2021/06/26 06:34:20;;;;;;;3.75;2.35;;;;;;;27.37;47.67;99932.41;5099198;28;20036;-50
2021/06/26 06:36:46;;;;;;;4.95;3.03;;;;;;;27.40;46.02;99926.75;5098677;28;20054;-50
2021/06/26 06:39:13;;;;;;;3.20;2.13;;;;;;;27.52;45.10;99920.22;5097156;28;20052;-50
2021/06/26 06:41:38;;;;;;;2.28;2.08;;;;;;;27.72;45.41;99929.94;5097268;28;20127;-50
2021/06/26 06:44:04;;;;;;;5.95;3.42;;;;;;;27.81;44.04;99925.53;5097924;28;20364;-50
2021/06/26 06:46:30;;;;;;;3.20;2.60;;;;;;;27.90;44.31;99921.97;5097545;28;20047;-50
2021/06/26 06:48:56;;;;;;;2.50;2.22;;;;;;;27.94;43.45;99933.28;5098261;28;20044;-50
2021/06/26 06:51:21;;;;;;;1.95;1.83;;;;;;;27.94;43.74;99934.13;5097353;28;20117;-50
2021/06/26 06:53:47;;;;;;;5.18;2.35;;;;;;;28.00;42.49;99926.50;5098799;28;20062;-50
2021/06/26 06:56:13;;;;;;;2.65;2.03;;;;;;;28.16;43.73;99930.25;5098145;28;20507;-49
2021/06/26 06:58:38;;;;;;;2.90;2.38;;;;;;;28.37;42.60;99943.47;5080999;28;20060;-50
2021/06/26 07:01:04;;;;;;;2.72;1.98;;;;;;;28.42;41.66;99937.66;5097835;28;20447;-50
2021/06/26 07:03:30;;;;;;;4.22;2.58;;;;;;;28.40;41.12;99945.03;5098390;28;20044;-50
2021/06/26 07:05:56;;;;;;;4.38;2.33;;;;;;;28.40;41.92;99951.28;5098433;28;20046;-50
2021/06/26 07:08:22;;;;;;;5.55;1.77;;;;;;;28.64;41.51;99942.63;5098291;28;20119;-50
2021/06/26 07:10:47;;;;;;;3.30;2.50;;;;;;;28.70;41.39;99951.09;5094949;28;20058;-55
2021/06/26 07:13:13;;;;;;;3.35;2.20;;;;;;;28.71;40.35;99950.97;5086892;28;20036;-55
2021/06/26 07:15:41;;;;;;;3.42;2.30;;;;;;;28.75;40.40;99946.94;5088090;28;20066;-57
2021/06/26 07:18:07;;;;;;;2.78;2.08;;;;;;;28.80;40.78;99946.50;5086019;28;20041;-57
2021/06/26 07:20:33;;;;;;;4.43;2.47;;;;;;;28.75;39.18;99943.41;5086632;28;20052;-56
2021/06/26 07:22:59;;;;;;;1.83;1.63;;;;;;;28.91;40.39;99948.97;5088003;28;20547;-54
2021/06/26 07:25:25;;;;;;;4.45;2.38;;;;;;;29.02;39.72;99956.00;5085825;28;20041;-50
2021/06/26 07:27:51;;;;;;;2.50;2.30;;;;;;;29.06;38.95;99955.56;5087073;28;20432;-60
2021/06/26 07:30:17;;;;;;;4.07;2.42;;;;;;;29.09;39.68;99951.72;5086600;28;20389;-50
2021/06/26 07:32:45;;;;;;;2.53;2.33;;;;;;;29.16;39.63;99955.50;5085344;28;20048;-50
2021/06/26 07:35:12;;;;;;;7.05;6.30;;;;;;;29.32;39.14;99947.53;5087161;28;20345;-56
2021/06/26 07:37:38;;;;;;;5.35;3.40;;;;;;;29.26;39.10;99945.47;5087013;28;20062;-56
2021/06/26 07:40:04;;;;;;;4.95;2.22;;;;;;;29.27;39.53;99955.25;5067758;28;20040;-56
2021/06/26 07:42:30;;;;;;;3.13;2.22;;;;;;;29.34;39.09;99960.84;5086981;28;20040;-56
2021/06/26 07:44:56;;;;;;;3.13;2.35;;;;;;;29.09;39.00;99955.25;5086849;28;20044;-56
2021/06/26 07:47:22;;;;;;;2.88;2.00;;;;;;;28.76;38.70;99956.75;5085407;28;20372;-56
2021/06/26 07:49:47;;;;;;;3.80;2.55;;;;;;;28.41;38.33;99952.13;5087015;28;20044;-55
2021/06/26 07:52:14;;;;;;;2.50;2.30;;;;;;;28.23;38.93;99954.72;5102209;28;20052;-55
2021/06/26 07:54:40;;;;;;;3.95;2.80;;;;;;;28.09;39.66;99952.53;5085076;28;20148;-55
2021/06/26 07:57:06;;;;;;;4.00;3.28;;;;;;;28.22;39.84;99942.25;5077026;28;20037;-56
2021/06/26 07:59:32;;;;;;;3.53;2.30;;;;;;;28.41;38.44;99947.59;5077075;28;20098;-55
2021/06/26 08:01:57;;;;;;;2.38;1.80;;;;;;;28.57;38.69;99946.94;5077191;28;20053;-55
2021/06/26 08:04:23;;;;;;;7.45;2.55;;;;;;;28.82;38.44;99950.72;5076810;28;20052;-56
2021/06/26 08:06:49;;;;;;;3.35;2.28;;;;;;;28.99;38.89;99957.16;5076808;28;20048;-55
2021/06/26 08:09:15;;;;;;;2.47;2.28;;;;;;;28.98;38.11;99946.50;5077148;28;20044;-56
2021/06/26 08:11:41;;;;;;;10.70;4.70;;;;;;;29.02;38.27;99946.09;5076674;28;20048;-56
2021/06/26 08:14:08;;;;;;;6.63;3.38;;;;;;;29.11;39.36;99950.53;5077058;28;20048;-56
2021/06/26 08:16:33;;;;;;;3.28;2.53;;;;;;;29.38;36.98;99943.38;5076950;28;20060;-55
2021/06/26 08:18:59;;;;;;;5.45;2.47;;;;;;;29.39;36.37;99945.06;5076944;28;20403;-56
2021/06/26 08:21:26;;;;;;;3.33;2.20;;;;;;;29.28;37.11;99951.56;5076030;28;20110;-55
2021/06/26 08:23:52;;;;;;;2.90;2.60;;;;;;;29.37;37.04;99944.38;5076532;28;20444;-55
2021/06/26 08:26:17;;;;;;;3.13;1.70;;;;;;;29.54;36.62;99948.03;5076582;28;20044;-55
2021/06/26 08:28:43;;;;;;;3.78;2.30;;;;;;;29.69;35.44;99946.50;5076762;28;20055;-56
2021/06/26 08:31:09;;;;;;;2.97;2.13;;;;;;;29.75;36.59;99937.78;5076306;28;20368;-55
2021/06/26 08:33:35;;;;;;;15.90;5.72;;;;;;;30.04;37.57;99942.84;5076459;28;20036;-55
2021/06/26 08:36:01;;;;;;;4.88;2.10;;;;;;;29.89;35.63;99941.72;5026344;28;20056;-55
2021/06/26 08:38:27;;;;;;;2.47;2.15;;;;;;;29.74;35.53;99938.78;5076570;28;20041;-55
2021/06/26 08:40:53;;;;;;;4.68;2.15;;;;;;;29.74;35.99;99938.78;5076134;28;20055;-55
2021/06/26 08:43:20;;;;;;;3.80;2.50;;;;;;;29.92;37.05;99935.16;5075652;28;20052;-55
2021/06/26 08:45:46;;;;;;;5.70;2.30;;;;;;;29.86;36.23;99939.34;5076743;28;20140;-55
2021/06/26 08:48:12;;;;;;;5.43;2.45;;;;;;;29.54;36.59;99940.81;5059002;28;20045;-55
2021/06/26 08:50:38;;;;;;;4.05;1.98;;;;;;;29.52;36.75;99937.41;5076050;28;20052;-55
2021/06/26 08:53:03;;;;;;;3.20;2.00;;;;;;;29.49;36.26;99934.19;5076443;28;20113;-55
2021/06/26 08:55:29;;;;;;;6.18;2.22;;;;;;;29.73;37.02;99928.13;5058570;28;20368;-55
2021/06/26 08:57:55;;;;;;;3.88;1.95;;;;;;;29.95;36.20;99932.16;5076578;28;20102;-55
2021/06/26 09:00:25;;;;;;;6.03;1.85;;;;;;;30.06;35.17;99918.34;5076062;28;20044;-55
2021/06/26 09:02:51;;;;;;;3.45;2.25;;;;;;;29.89;34.69;99920.13;5076018;28;20110;-55
2021/06/26 09:05:28;;;;;;;3.72;1.80;;;;;;;29.96;34.91;99921.19;5076238;28;20056;-55
2021/06/26 09:07:54;;;;;;;3.85;2.30;;;;;;;29.94;35.44;99906.16;5076384;28;20040;-55
2021/06/26 09:10:21;;;;;;;3.70;2.08;;;;;;;30.11;36.28;99918.72;5075914;28;20056;-55
2021/06/26 09:12:49;;;;;;;3.15;2.50;;;;;;;30.25;35.31;99912.75;5076086;28;20127;-56
2021/06/26 09:15:22;;;;;;;3.38;2.38;;;;;;;30.29;35.44;99910.59;5058836;28;20048;-55
2021/06/26 09:17:48;;;;;;;5.18;2.25;;;;;;;30.23;36.81;99903.97;5076150;28;20056;-55
2021/06/26 09:20:14;;;;;;;12.70;10.50;;;;;;;30.46;35.53;99906.91;5076144;28;20365;-57
2021/06/26 09:22:45;;;;;;;6.80;4.00;;;;;;;30.68;36.03;99904.59;5075217;28;20049;-58
2021/06/26 09:25:34;;;;;;;8.50;2.38;;;;;;;30.67;34.88;99906.44;5076074;28;20045;-58
2021/06/26 09:28:04;;;;;;;2.75;2.35;;;;;;;30.68;35.24;99908.16;5075871;28;20052;-55
2021/06/26 09:30:43;;;;;;;6.78;3.03;;;;;;;30.28;35.23;99906.16;5075921;28;20356;-55
2021/06/26 09:33:11;;;;;;;6.32;5.25;;;;;;;29.99;37.58;99901.13;5075688;28;20306;-55
2021/06/26 09:35:37;;;;;;;11.25;10.23;;;;;;;29.89;36.12;99909.34;5075685;28;20052;-56
2021/06/26 09:38:04;;;;;;;3.15;2.85;;;;;;;29.82;37.16;99902.88;5075571;28;20053;-55
2021/06/26 09:40:30;;;;;;;4.35;2.20;;;;;;;30.08;37.25;99896.63;5075955;28;20359;-55
2021/06/26 09:42:56;;;;;;;5.20;2.67;;;;;;;30.46;36.28;99900.69;5075931;28;20044;-55
2021/06/26 09:45:22;;;;;;;3.63;1.55;;;;;;;30.61;35.65;99899.00;5075576;28;20044;-55
2021/06/26 09:47:47;;;;;;;2.60;1.40;;;;;;;30.84;35.78;99903.81;5075882;28;20059;-55
2021/06/26 09:50:13;;;;;;;1.73;1.63;;;;;;;30.81;35.17;99901.44;5074948;28;20326;-55
2021/06/26 09:52:55;;;;;;;3.42;1.75;;;;;;;30.51;34.25;99898.31;5076066;28;20094;-55
2021/06/26 09:55:28;;;;;;;2.78;1.42;;;;;;;30.29;35.65;99897.09;5080344;28;20405;-55
2021/06/26 09:57:55;;;;;;;2.45;1.77;;;;;;;30.11;35.68;99888.19;5079628;28;20058;-54
2021/06/26 10:00:22;;;;;;;2.17;1.45;;;;;;;30.30;36.06;99895.22;5078732;28;20131;-54
2021/06/26 10:02:48;;;;;;;2.60;1.52;;;;;;;30.43;35.32;99890.19;5079559;28;20364;-55
2021/06/26 10:05:14;;;;;;;1.88;1.77;;;;;;;30.36;36.08;99892.72;5079468;28;20048;-54
2021/06/26 10:07:40;;;;;;;2.25;1.77;;;;;;;30.15;35.66;99898.50;5079453;28;20056;-54
2021/06/26 10:10:09;;;;;;;6.95;3.05;;;;;;;30.07;34.46;99893.06;5079132;28;20040;-54
2021/06/26 10:12:36;;;;;;;4.70;2.58;;;;;;;30.04;34.58;99891.53;5078228;28;20051;-54
2021/06/26 10:15:05;;;;;;;6.93;3.25;;;;;;;29.83;34.82;99887.53;5079548;28;20044;-54
2021/06/26 10:17:33;;;;;;;14.02;3.88;;;;;;;29.63;36.20;99890.47;5079197;28;20442;-54
2021/06/26 10:19:59;;;;;;;2.47;2.17;;;;;;;29.37;36.63;99893.13;5079243;28;20060;-54
2021/06/26 10:22:25;;;;;;;3.50;3.20;;;;;;;29.22;36.56;99895.56;5078319;28;20048;-54
2021/06/26 10:24:51;;;;;;;3.30;3.00;;;;;;;29.14;36.94;99879.28;5078213;28;20052;-54
2021/06/26 10:27:22;;;;;;;18.55;10.38;;;;;;;29.09;36.40;99895.09;5078045;28;20053;-54
2021/06/26 10:29:48;;;;;;;8.80;5.60;;;;;;;28.88;36.49;99888.13;5079125;28;20067;-54
2021/06/26 10:32:15;;;;;;;4.85;3.15;;;;;;;28.82;36.87;99893.28;5078439;28;20045;-54
2021/06/26 10:34:46;;;;;;;12.05;6.50;;;;;;;28.75;36.83;99884.97;5078936;28;20131;-55
2021/06/26 10:37:14;;;;;;;8.38;2.58;;;;;;;28.72;37.08;99885.28;5061665;28;20052;-54
2021/06/26 10:39:40;;;;;;;5.85;2.13;;;;;;;28.73;37.21;99887.00;5079377;28;20066;-55
2021/06/26 10:42:08;;;;;;;4.28;1.80;;;;;;;28.79;37.10;99899.00;5061402;28;20114;-57
2021/06/26 10:44:47;;;;;;;4.28;1.52;;;;;;;28.85;38.66;99898.38;5078672;28;20090;-56
2021/06/26 10:47:13;;;;;;;2.75;2.00;;;;;;;28.71;37.01;99891.69;5078445;28;20051;-56
2021/06/26 10:49:39;;;;;;;2.17;1.92;;;;;;;28.59;36.86;99892.91;5077908;28;20126;-56
2021/06/26 10:52:09;;;;;;;3.75;2.10;;;;;;;28.48;37.34;99891.28;5077143;28;20071;-56
2021/06/26 10:54:36;;;;;;;2.17;1.95;;;;;;;28.46;37.74;99900.50;5078419;28;20416;-56
2021/06/26 10:57:03;;;;;;;2.47;2.20;;;;;;;28.56;38.32;99891.34;5078832;28;20055;-56
2021/06/26 10:59:29;;;;;;;1.80;1.70;;;;;;;28.64;38.59;99890.59;5077664;28;20055;-56
2021/06/26 11:02:04;;;;;;;2.70;2.50;;;;;;;28.67;38.37;99889.47;5078686;28;20113;-56
2021/06/26 11:04:30;;;;;;;3.20;2.90;;;;;;;28.70;38.51;99890.00;5078106;28;20087;-56
2021/06/26 11:07:03;;;;;;;3.28;2.85;;;;;;;28.75;38.50;99893.06;5078126;28;20040;-56
2021/06/26 11:09:39;;;;;;;2.97;2.65;;;;;;;28.80;38.77;99885.38;5078130;28;20044;-56
2021/06/26 11:12:09;;;;;;;3.20;2.53;;;;;;;28.80;38.73;99876.44;5078580;28;20449;-56
2021/06/26 11:14:35;;;;;;;7.10;3.97;;;;;;;28.79;38.72;99880.97;5060966;28;20041;-56
2021/06/26 11:17:01;;;;;;;5.35;3.30;;;;;;;28.82;39.08;99883.34;5077309;28;20334;-56
2021/06/26 11:19:32;;;;;;;5.68;4.20;;;;;;;28.83;39.18;99885.06;5077841;28;20052;-56
2021/06/26 11:21:58;;;;;;;4.30;3.60;;;;;;;28.76;38.54;99889.38;5077892;28;20052;-56
2021/06/26 11:24:41;;;;;;;3.60;2.83;;;;;;;28.75;39.11;99893.06;5077743;28;20464;-56
2021/06/26 11:27:08;;;;;;;5.30;3.05;;;;;;;28.79;39.72;99891.75;5077545;28;20060;-56
2021/06/26 11:29:41;;;;;;;4.35;2.60;;;;;;;28.86;39.80;99898.25;5077004;28;20097;-56